FIN7DZ EFHK-EFOU
Flight info
| Callsign | FIN7DZ |
|---|---|
| Flight time | 0h 51m |
| Altitude | 34000 |
| Route | TEVRU Y75 SUVIB |
| Aircraft | A319/M-SDE1E2E3FGIJ1M1RWXYZ/LB1 |
Departure
| Time | 2026-04-21 18:22 |
|---|---|
| Airport | Helsinki Vantaa Airport (EFHK) |
Arrival
| Time | 2026-04-21 19:13 |
|---|---|
| Airport | Oulu Airport (EFOU) |
| Time | Latitude | Longitude | Altitude | Speed | Heading |
|---|---|---|---|---|---|
| 2026-04-21 18:03 | 60.31277 | 24.95148 | 168 ft | 0 kts | 137° |
| 2026-04-21 18:15 | 60.31278 | 24.95147 | 167 ft | 2 kts | 137° |
| 2026-04-21 18:15 | 60.31296 | 24.95112 | 167 ft | 4 kts | 133° |
| 2026-04-21 18:16 | 60.31313 | 24.95070 | 167 ft | 4 kts | 121° |
| 2026-04-21 18:16 | 60.31322 | 24.95022 | 166 ft | 4 kts | 75° |
| 2026-04-21 18:16 | 60.31319 | 24.95005 | 166 ft | 0 kts | 47° |
| 2026-04-21 18:19 | 60.31320 | 24.95005 | 166 ft | 0 kts | 47° |
| 2026-04-21 18:19 | 60.31330 | 24.95029 | 166 ft | 4 kts | 47° |
| 2026-04-21 18:19 | 60.31361 | 24.95096 | 167 ft | 10 kts | 41° |
| 2026-04-21 18:19 | 60.31415 | 24.95049 | 167 ft | 10 kts | 306° |
| 2026-04-21 18:20 | 60.31449 | 24.94945 | 168 ft | 9 kts | 283° |
| 2026-04-21 18:20 | 60.31415 | 24.94827 | 165 ft | 12 kts | 227° |
| 2026-04-21 18:20 | 60.31404 | 24.94677 | 163 ft | 13 kts | 319° |
| 2026-04-21 18:20 | 60.31476 | 24.94566 | 163 ft | 13 kts | 317° |
| 2026-04-21 18:21 | 60.31529 | 24.94521 | 163 ft | 6 kts | 30° |
| 2026-04-21 18:21 | 60.31596 | 24.94665 | 165 ft | 39 kts | 47° |
| 2026-04-21 18:21 | 60.31960 | 24.95466 | 173 ft | 113 kts | 47° |
| 2026-04-21 18:21 | 60.32633 | 24.96956 | 287 ft | 159 kts | 48° |
| 2026-04-21 18:22 | 60.33373 | 24.98608 | 981 ft | 159 kts | 46° |
| 2026-04-21 18:22 | 60.34110 | 25.00233 | 1736 ft | 157 kts | 44° |
| 2026-04-21 18:22 | 60.34859 | 25.01835 | 2472 ft | 157 kts | 42° |
| 2026-04-21 18:22 | 60.35647 | 25.03506 | 2972 ft | 173 kts | 43° |
| 2026-04-21 18:23 | 60.36520 | 25.05404 | 3342 ft | 197 kts | 44° |
| 2026-04-21 18:23 | 60.37503 | 25.07582 | 3790 ft | 222 kts | 44° |
| 2026-04-21 18:23 | 60.38600 | 25.10024 | 4349 ft | 245 kts | 45° |
| 2026-04-21 18:23 | 60.39927 | 25.12211 | 5229 ft | 250 kts | 23° |
| 2026-04-21 18:24 | 60.41624 | 25.12967 | 6207 ft | 254 kts | 359° |
| 2026-04-21 18:24 | 60.43364 | 25.12177 | 7149 ft | 261 kts | 341° |
| 2026-04-21 18:24 | 60.45074 | 25.10887 | 8128 ft | 264 kts | 341° |
| 2026-04-21 18:24 | 60.46814 | 25.09561 | 9027 ft | 269 kts | 340° |
| 2026-04-21 18:25 | 60.48571 | 25.08215 | 10005 ft | 272 kts | 340° |
| 2026-04-21 18:25 | 60.50390 | 25.06828 | 10549 ft | 291 kts | 341° |
| 2026-04-21 18:25 | 60.52355 | 25.05339 | 10988 ft | 309 kts | 341° |
| 2026-04-21 18:25 | 60.54395 | 25.03786 | 11770 ft | 315 kts | 341° |
| 2026-04-21 18:26 | 60.56457 | 25.02208 | 12638 ft | 319 kts | 341° |
| 2026-04-21 18:26 | 60.58574 | 25.00582 | 13519 ft | 322 kts | 341° |
| 2026-04-21 18:26 | 60.60656 | 24.98990 | 14305 ft | 325 kts | 341° |
| 2026-04-21 18:26 | 60.62791 | 24.97360 | 15017 ft | 330 kts | 341° |
| 2026-04-21 18:27 | 60.64957 | 24.95701 | 15727 ft | 334 kts | 341° |
| 2026-04-21 18:27 | 60.67148 | 24.94020 | 16423 ft | 338 kts | 341° |
| 2026-04-21 18:27 | 60.69371 | 24.92316 | 17109 ft | 343 kts | 341° |
| 2026-04-21 18:27 | 60.71619 | 24.90588 | 17800 ft | 347 kts | 341° |
| 2026-04-21 18:28 | 60.73899 | 24.88829 | 18474 ft | 352 kts | 341° |
| 2026-04-21 18:28 | 60.76201 | 24.87044 | 19066 ft | 356 kts | 341° |
| 2026-04-21 18:28 | 60.78531 | 24.85236 | 19669 ft | 360 kts | 341° |
| 2026-04-21 18:28 | 60.80927 | 24.83661 | 20266 ft | 362 kts | 349° |
| 2026-04-21 18:29 | 60.83434 | 24.83036 | 20870 ft | 364 kts | 0° |
| 2026-04-21 18:29 | 60.85964 | 24.83378 | 21485 ft | 366 kts | 8° |
| 2026-04-21 18:29 | 60.88514 | 24.83997 | 22096 ft | 370 kts | 8° |
| 2026-04-21 18:29 | 60.91082 | 24.84608 | 22701 ft | 374 kts | 8° |
| 2026-04-21 18:30 | 60.93680 | 24.85219 | 23300 ft | 377 kts | 8° |
| 2026-04-21 18:30 | 60.96298 | 24.85835 | 23846 ft | 381 kts | 8° |
| 2026-04-21 18:30 | 60.98946 | 24.86460 | 24329 ft | 384 kts | 8° |
| 2026-04-21 18:30 | 61.01612 | 24.87088 | 24807 ft | 388 kts | 8° |
| 2026-04-21 18:31 | 61.04301 | 24.87718 | 25279 ft | 391 kts | 8° |
| 2026-04-21 18:31 | 61.07015 | 24.88360 | 25744 ft | 394 kts | 8° |
| 2026-04-21 18:31 | 61.09749 | 24.89017 | 26200 ft | 397 kts | 8° |
| 2026-04-21 18:31 | 61.12507 | 24.89686 | 26646 ft | 400 kts | 8° |
| 2026-04-21 18:32 | 61.15247 | 24.90353 | 27080 ft | 403 kts | 8° |
| 2026-04-21 18:32 | 61.18086 | 24.91036 | 27534 ft | 407 kts | 8° |
| 2026-04-21 18:32 | 61.20905 | 24.91708 | 27974 ft | 410 kts | 9° |
| 2026-04-21 18:32 | 61.23711 | 24.92377 | 28403 ft | 413 kts | 9° |
| 2026-04-21 18:33 | 61.26584 | 24.93066 | 28826 ft | 416 kts | 9° |
| 2026-04-21 18:33 | 61.29474 | 24.93762 | 29250 ft | 419 kts | 9° |
| 2026-04-21 18:33 | 61.32385 | 24.94467 | 29660 ft | 423 kts | 9° |
| 2026-04-21 18:33 | 61.35321 | 24.95188 | 30067 ft | 426 kts | 9° |
| 2026-04-21 18:34 | 61.38275 | 24.95919 | 30414 ft | 429 kts | 9° |
| 2026-04-21 18:34 | 61.41247 | 24.96649 | 30774 ft | 431 kts | 9° |
| 2026-04-21 18:34 | 61.44237 | 24.97378 | 31132 ft | 433 kts | 9° |
| 2026-04-21 18:34 | 61.47229 | 24.98106 | 31494 ft | 434 kts | 8° |
| 2026-04-21 18:35 | 61.49218 | 24.98590 | 31732 ft | 435 kts | 8° |
| 2026-04-21 18:35 | 61.53244 | 24.99573 | 32334 ft | 433 kts | 8° |
| 2026-04-21 18:35 | 61.56230 | 25.00308 | 32848 ft | 431 kts | 8° |
| 2026-04-21 18:35 | 61.59203 | 25.01047 | 33366 ft | 429 kts | 8° |
| 2026-04-21 18:36 | 61.62131 | 25.01605 | 33866 ft | 428 kts | 3° |
| 2026-04-21 18:36 | 61.65101 | 25.01715 | 34325 ft | 426 kts | 2° |
| 2026-04-21 18:36 | 61.68064 | 25.01821 | 34733 ft | 424 kts | 2° |
| 2026-04-21 18:36 | 61.71014 | 25.01927 | 35103 ft | 423 kts | 2° |
| 2026-04-21 18:37 | 61.73962 | 25.02037 | 35459 ft | 423 kts | 2° |
| 2026-04-21 18:37 | 61.76898 | 25.02142 | 35792 ft | 422 kts | 2° |
| 2026-04-21 18:37 | 61.79837 | 25.02243 | 36124 ft | 421 kts | 2° |
| 2026-04-21 18:37 | 61.82764 | 25.02350 | 36441 ft | 421 kts | 2° |
| 2026-04-21 18:38 | 61.85693 | 25.02463 | 36748 ft | 420 kts | 2° |
| 2026-04-21 18:38 | 61.88617 | 25.02575 | 37050 ft | 419 kts | 2° |
| 2026-04-21 18:38 | 61.91532 | 25.02688 | 37343 ft | 419 kts | 2° |
| 2026-04-21 18:38 | 61.94448 | 25.02804 | 37636 ft | 418 kts | 2° |
| 2026-04-21 18:39 | 61.97317 | 25.02917 | 37915 ft | 417 kts | 2° |
| 2026-04-21 18:39 | 62.00230 | 25.03031 | 38075 ft | 418 kts | 2° |
| 2026-04-21 18:39 | 62.03128 | 25.03141 | 38098 ft | 416 kts | 2° |
| 2026-04-21 18:40 | 62.08918 | 25.03366 | 38100 ft | 415 kts | 2° |
| 2026-04-21 18:40 | 62.13719 | 25.03555 | 38111 ft | 415 kts | 2° |
| 2026-04-21 18:41 | 62.20480 | 25.03811 | 38112 ft | 415 kts | 2° |
| 2026-04-21 18:41 | 62.23368 | 25.03920 | 38111 ft | 415 kts | 2° |
| 2026-04-21 18:42 | 62.27727 | 25.04067 | 38100 ft | 415 kts | 2° |
| 2026-04-21 18:42 | 62.33492 | 25.04291 | 38100 ft | 414 kts | 2° |
| 2026-04-21 18:43 | 62.39262 | 25.04536 | 38100 ft | 414 kts | 2° |
| 2026-04-21 18:43 | 62.45027 | 25.04761 | 38100 ft | 414 kts | 2° |
| 2026-04-21 18:44 | 62.50795 | 25.04974 | 38100 ft | 414 kts | 2° |
| 2026-04-21 18:44 | 62.56560 | 25.05204 | 38104 ft | 414 kts | 2° |
| 2026-04-21 18:45 | 62.62315 | 25.05436 | 38104 ft | 414 kts | 2° |
| 2026-04-21 18:45 | 62.68082 | 25.05666 | 38104 ft | 414 kts | 2° |
| 2026-04-21 18:46 | 62.73844 | 25.05891 | 38102 ft | 414 kts | 1° |
| 2026-04-21 18:46 | 62.79564 | 25.06100 | 38100 ft | 414 kts | 1° |
| 2026-04-21 18:47 | 62.85318 | 25.06322 | 38100 ft | 413 kts | 1° |
| 2026-04-21 18:47 | 62.91069 | 25.06553 | 38100 ft | 413 kts | 1° |
| 2026-04-21 18:48 | 62.96828 | 25.06782 | 38096 ft | 414 kts | 1° |
| 2026-04-21 18:48 | 62.99716 | 25.06898 | 37837 ft | 414 kts | 1° |
| 2026-04-21 18:48 | 63.02597 | 25.07017 | 37562 ft | 414 kts | 1° |
| 2026-04-21 18:48 | 63.05478 | 25.07138 | 37287 ft | 414 kts | 1° |
| 2026-04-21 18:49 | 63.08357 | 25.07259 | 37028 ft | 414 kts | 1° |
| 2026-04-21 18:49 | 63.11241 | 25.07380 | 36762 ft | 414 kts | 1° |
| 2026-04-21 18:49 | 63.13154 | 25.07461 | 36591 ft | 415 kts | 1° |
| 2026-04-21 18:49 | 63.17018 | 25.07617 | 36247 ft | 415 kts | 1° |
| 2026-04-21 18:50 | 63.19905 | 25.07728 | 35998 ft | 415 kts | 1° |
| 2026-04-21 18:50 | 63.22801 | 25.07842 | 35746 ft | 416 kts | 1° |
| 2026-04-21 18:50 | 63.25656 | 25.07958 | 35501 ft | 416 kts | 1° |
| 2026-04-21 18:50 | 63.28553 | 25.08079 | 35245 ft | 416 kts | 1° |
| 2026-04-21 18:51 | 63.31457 | 25.08204 | 34591 ft | 417 kts | 1° |
| 2026-04-21 18:51 | 63.34351 | 25.08322 | 34045 ft | 414 kts | 1° |
| 2026-04-21 18:51 | 63.37227 | 25.08434 | 33418 ft | 411 kts | 1° |
| 2026-04-21 18:51 | 63.40074 | 25.08547 | 32849 ft | 407 kts | 1° |
| 2026-04-21 18:52 | 63.42898 | 25.08667 | 32274 ft | 405 kts | 1° |
| 2026-04-21 18:52 | 63.45709 | 25.08790 | 31715 ft | 402 kts | 1° |
| 2026-04-21 18:52 | 63.48503 | 25.08905 | 31155 ft | 400 kts | 1° |
| 2026-04-21 18:52 | 63.51276 | 25.09017 | 30610 ft | 398 kts | 1° |
| 2026-04-21 18:53 | 63.54044 | 25.09124 | 30053 ft | 396 kts | 0° |
| 2026-04-21 18:53 | 63.56799 | 25.09236 | 29478 ft | 393 kts | 0° |
| 2026-04-21 18:53 | 63.59521 | 25.09353 | 28956 ft | 389 kts | 0° |
| 2026-04-21 18:53 | 63.62213 | 25.09466 | 28446 ft | 385 kts | 0° |
| 2026-04-21 18:54 | 63.64888 | 25.09573 | 27946 ft | 381 kts | 0° |
| 2026-04-21 18:54 | 63.67530 | 25.09676 | 27465 ft | 378 kts | 0° |
| 2026-04-21 18:54 | 63.70148 | 25.09782 | 26985 ft | 374 kts | 0° |
| 2026-04-21 18:54 | 63.72740 | 25.09890 | 26525 ft | 371 kts | 0° |
| 2026-04-21 18:55 | 63.74445 | 25.09960 | 26215 ft | 369 kts | 0° |
| 2026-04-21 18:55 | 63.77007 | 25.10070 | 25747 ft | 367 kts | 0° |
| 2026-04-21 18:55 | 63.79556 | 25.10177 | 25279 ft | 365 kts | 0° |
| 2026-04-21 18:55 | 63.82092 | 25.10282 | 24800 ft | 364 kts | 0° |
| 2026-04-21 18:56 | 63.84621 | 25.10390 | 24323 ft | 362 kts | 0° |
| 2026-04-21 18:56 | 63.87144 | 25.10494 | 23829 ft | 361 kts | 0° |
| 2026-04-21 18:56 | 63.89531 | 25.10589 | 23320 ft | 360 kts | 0° |
| 2026-04-21 18:57 | 63.90456 | 25.10627 | 23128 ft | 359 kts | 0° |
| 2026-04-21 18:57 | 63.92913 | 25.10733 | 22633 ft | 356 kts | 0° |
| 2026-04-21 18:57 | 63.95379 | 25.10841 | 22149 ft | 353 kts | 0° |
| 2026-04-21 18:58 | 63.97826 | 25.10947 | 21653 ft | 351 kts | 0° |
| 2026-04-21 18:58 | 64.00262 | 25.11054 | 21181 ft | 348 kts | 0° |
| 2026-04-21 18:58 | 64.02671 | 25.11157 | 20705 ft | 345 kts | 360° |
| 2026-04-21 18:58 | 64.05065 | 25.11254 | 20236 ft | 343 kts | 360° |
| 2026-04-21 18:59 | 64.07441 | 25.11345 | 19768 ft | 340 kts | 360° |
| 2026-04-21 18:59 | 64.09785 | 25.11495 | 19531 ft | 331 kts | 4° |
| 2026-04-21 18:59 | 64.11997 | 25.12656 | 19236 ft | 324 kts | 15° |
| 2026-04-21 18:59 | 64.14137 | 25.14197 | 18787 ft | 320 kts | 15° |
| 2026-04-21 19:00 | 64.16253 | 25.15745 | 18320 ft | 317 kts | 15° |
| 2026-04-21 19:00 | 64.18347 | 25.17283 | 17805 ft | 315 kts | 15° |
| 2026-04-21 19:00 | 64.20426 | 25.18814 | 17294 ft | 312 kts | 15° |
| 2026-04-21 19:00 | 64.22488 | 25.20329 | 16803 ft | 310 kts | 15° |
| 2026-04-21 19:01 | 64.24534 | 25.21836 | 16319 ft | 308 kts | 15° |
| 2026-04-21 19:01 | 64.26569 | 25.23342 | 15845 ft | 306 kts | 15° |
| 2026-04-21 19:01 | 64.28590 | 25.24841 | 15380 ft | 304 kts | 15° |
| 2026-04-21 19:01 | 64.30595 | 25.26326 | 14921 ft | 301 kts | 14° |
| 2026-04-21 19:02 | 64.32585 | 25.27797 | 14435 ft | 299 kts | 14° |
| 2026-04-21 19:02 | 64.34538 | 25.29237 | 13965 ft | 297 kts | 14° |
| 2026-04-21 19:02 | 64.36502 | 25.30692 | 13449 ft | 295 kts | 14° |
| 2026-04-21 19:02 | 64.38452 | 25.32144 | 12920 ft | 293 kts | 14° |
| 2026-04-21 19:03 | 64.40390 | 25.33590 | 12406 ft | 292 kts | 14° |
| 2026-04-21 19:03 | 64.42323 | 25.35030 | 12014 ft | 291 kts | 14° |
| 2026-04-21 19:03 | 64.44241 | 25.36457 | 11618 ft | 289 kts | 14° |
| 2026-04-21 19:03 | 64.46155 | 25.37888 | 11215 ft | 288 kts | 15° |
| 2026-04-21 19:04 | 64.48061 | 25.39315 | 10830 ft | 287 kts | 15° |
| 2026-04-21 19:04 | 64.49956 | 25.40737 | 10476 ft | 285 kts | 15° |
| 2026-04-21 19:04 | 64.51847 | 25.42156 | 10230 ft | 285 kts | 15° |
| 2026-04-21 19:04 | 64.53713 | 25.43563 | 10006 ft | 278 kts | 15° |
| 2026-04-21 19:05 | 64.55528 | 25.44934 | 9815 ft | 272 kts | 15° |
| 2026-04-21 19:05 | 64.57305 | 25.46276 | 9626 ft | 265 kts | 15° |
| 2026-04-21 19:05 | 64.59046 | 25.47598 | 9242 ft | 263 kts | 15° |
| 2026-04-21 19:05 | 64.60804 | 25.48931 | 8873 ft | 261 kts | 14° |
| 2026-04-21 19:06 | 64.62532 | 25.50238 | 8474 ft | 260 kts | 14° |
| 2026-04-21 19:06 | 64.64248 | 25.51541 | 8106 ft | 258 kts | 14° |
| 2026-04-21 19:06 | 64.65927 | 25.52815 | 7735 ft | 256 kts | 14° |
| 2026-04-21 19:06 | 64.67638 | 25.54112 | 7357 ft | 254 kts | 14° |
| 2026-04-21 19:07 | 64.69311 | 25.55386 | 7001 ft | 252 kts | 14° |
| 2026-04-21 19:07 | 64.70968 | 25.56650 | 6638 ft | 250 kts | 14° |
| 2026-04-21 19:07 | 64.72615 | 25.57908 | 6270 ft | 247 kts | 14° |
| 2026-04-21 19:07 | 64.74241 | 25.59149 | 5908 ft | 245 kts | 14° |
| 2026-04-21 19:08 | 64.75851 | 25.60374 | 5560 ft | 242 kts | 14° |
| 2026-04-21 19:08 | 64.77388 | 25.61956 | 5207 ft | 243 kts | 27° |
| 2026-04-21 19:08 | 64.78816 | 25.64006 | 4826 ft | 238 kts | 27° |
| 2026-04-21 19:08 | 64.80218 | 25.66017 | 4456 ft | 233 kts | 27° |
| 2026-04-21 19:09 | 64.81585 | 25.67950 | 4105 ft | 226 kts | 24° |
| 2026-04-21 19:09 | 64.83039 | 25.68807 | 3762 ft | 210 kts | 353° |
| 2026-04-21 19:09 | 64.84373 | 25.67842 | 3459 ft | 198 kts | 325° |
| 2026-04-21 19:09 | 64.85300 | 25.65545 | 3155 ft | 192 kts | 302° |
| 2026-04-21 19:10 | 64.85969 | 25.62913 | 2860 ft | 182 kts | 302° |
| 2026-04-21 19:10 | 64.86603 | 25.60438 | 2592 ft | 171 kts | 302° |
| 2026-04-21 19:10 | 64.87197 | 25.58122 | 2345 ft | 161 kts | 302° |
| 2026-04-21 19:10 | 64.87761 | 25.55928 | 2086 ft | 151 kts | 303° |
| 2026-04-21 19:11 | 64.88285 | 25.53886 | 1865 ft | 140 kts | 303° |
| 2026-04-21 19:11 | 64.88768 | 25.51994 | 1665 ft | 128 kts | 303° |
| 2026-04-21 19:11 | 64.89222 | 25.50235 | 1457 ft | 124 kts | 303° |
| 2026-04-21 19:11 | 64.89672 | 25.48522 | 1286 ft | 122 kts | 303° |
| 2026-04-21 19:12 | 64.90118 | 25.46824 | 1066 ft | 121 kts | 302° |
| 2026-04-21 19:12 | 64.90548 | 25.45130 | 862 ft | 123 kts | 299° |
| 2026-04-21 19:12 | 64.90982 | 25.43407 | 681 ft | 122 kts | 299° |
| 2026-04-21 19:12 | 64.91423 | 25.41713 | 506 ft | 121 kts | 300° |
| 2026-04-21 19:13 | 64.91857 | 25.40012 | 313 ft | 121 kts | 299° |
| 2026-04-21 19:13 | 64.92287 | 25.38312 | 157 ft | 120 kts | 297° |
| 2026-04-21 19:13 | 64.92717 | 25.36612 | 51 ft | 106 kts | 301° |
| 2026-04-21 19:13 | 64.93010 | 25.35442 | 54 ft | 41 kts | 302° |
| 2026-04-21 19:14 | 64.93147 | 25.35204 | 52 ft | 19 kts | 344° |
| 2026-04-21 19:14 | 64.93216 | 25.35263 | 48 ft | 9 kts | 49° |
| 2026-04-21 19:14 | 64.93228 | 25.35351 | 51 ft | 6 kts | 103° |
| 2026-04-21 19:14 | 64.93206 | 25.35448 | 48 ft | 7 kts | 121° |
| 2026-04-21 19:15 | 64.93176 | 25.35560 | 48 ft | 9 kts | 122° |
| 2026-04-21 19:15 | 64.93134 | 25.35718 | 48 ft | 14 kts | 121° |
| 2026-04-21 19:15 | 64.93078 | 25.35941 | 48 ft | 16 kts | 121° |
| 2026-04-21 19:15 | 64.93018 | 25.36179 | 50 ft | 17 kts | 122° |
| 2026-04-21 19:16 | 64.92954 | 25.36423 | 51 ft | 17 kts | 120° |
| 2026-04-21 19:16 | 64.92896 | 25.36653 | 51 ft | 17 kts | 121° |
| 2026-04-21 19:16 | 64.92835 | 25.36895 | 47 ft | 15 kts | 120° |
| 2026-04-21 19:16 | 64.92790 | 25.37073 | 49 ft | 12 kts | 121° |
| 2026-04-21 19:17 | 64.92726 | 25.37322 | 50 ft | 7 kts | 122° |
| 2026-04-21 19:17 | 64.92724 | 25.37386 | 51 ft | 3 kts | 33° |
| 2026-04-21 19:17 | 64.92748 | 25.37415 | 50 ft | 4 kts | 31° |
| 2026-04-21 19:18 | 64.92773 | 25.37449 | 48 ft | 3 kts | 30° |
| 2026-04-21 19:18 | 64.92780 | 25.37458 | 49 ft | 0 kts | 29° |